Time;durP1;ratioP1;P1;durP2;ratioP2;P2;SDS_P1;SDS_P2;PMS_P1;PMS_P2;Temp;Humidity;BMP_temperature;BMP_pressure;BME280_temperature;BME280_humidity;BME280_pressure;Samples;Min_cycle;Max_cycle;Signal;HPM_P1;HPM_P2
2022/11/04 00:00:25;;;;;;;13.95;12.75;;;;;;;9.80;100.00;100096.81;5022837;28;20114;-77
2022/11/04 00:02:50;;;;;;;14.25;12.85;;;;;;;9.76;100.00;100087.50;5030208;28;20080;-77
2022/11/04 00:05:16;;;;;;;15.98;14.40;;;;;;;9.80;100.00;100085.47;5049304;28;20025;-77
2022/11/04 00:13:12;;;;;;;15.07;13.13;;;;;;;9.75;100.00;100098.97;5048386;28;20071;-77
2022/11/04 00:18:21;;;;;;;12.93;11.73;;;;;;;9.70;100.00;100095.91;5027480;28;20028;-77
2022/11/04 00:28:58;;;;;;;11.70;10.57;;;;;;;9.53;100.00;100114.81;5049412;28;20428;-77
2022/11/04 00:34:07;;;;;;;12.73;11.13;;;;;;;9.41;100.00;100117.47;5032240;28;20037;-76
2022/11/04 00:36:33;;;;;;;12.38;11.18;;;;;;;9.37;100.00;100118.69;5030352;28;20458;-76
2022/11/04 00:38:58;;;;;;;12.70;11.30;;;;;;;9.33;100.00;100124.31;5030204;28;20028;-77
2022/11/04 00:41:27;;;;;;;12.20;10.77;;;;;;;9.30;100.00;100124.56;5029376;28;20018;-77
2022/11/04 00:44:00;;;;;;;12.68;11.02;;;;;;;9.28;100.00;100135.19;5044057;28;20213;-77
2022/11/04 00:46:27;;;;;;;12.05;10.85;;;;;;;9.29;100.00;100131.59;5049850;28;20596;-76
2022/11/04 00:48:53;;;;;;;13.32;11.15;;;;;;;9.26;100.00;100123.16;5042373;28;20103;-76
2022/11/04 00:51:20;;;;;;;12.73;10.52;;;;;;;9.21;100.00;100141.06;5032979;28;20473;-76
2022/11/04 00:53:45;;;;;;;12.82;11.05;;;;;;;9.18;100.00;100141.28;5049790;28;20028;-77
2022/11/04 00:56:11;;;;;;;12.85;10.82;;;;;;;9.17;100.00;100148.31;5054842;28;20404;-77
2022/11/04 00:58:36;;;;;;;13.18;10.80;;;;;;;9.11;100.00;100147.00;5028360;28;20024;-76
2022/11/04 01:01:16;;;;;;;12.88;11.43;;;;;;;9.08;100.00;100152.50;5027809;28;20112;-76
2022/11/04 01:03:42;;;;;;;12.70;11.20;;;;;;;9.05;100.00;100152.75;5037920;28;20025;-77
2022/11/04 01:06:08;;;;;;;14.20;11.45;;;;;;;9.04;100.00;100160.75;5063765;28;20025;-77
2022/11/04 01:08:33;;;;;;;13.85;11.50;;;;;;;9.00;100.00;100156.69;5045174;28;20611;-77
2022/11/04 01:11:03;;;;;;;13.63;12.00;;;;;;;9.00;100.00;100154.91;5028207;28;20025;-77
2022/11/04 01:13:29;;;;;;;14.55;12.48;;;;;;;8.97;100.00;100156.94;5060819;28;20052;-77
2022/11/04 01:15:57;;;;;;;14.00;12.50;;;;;;;8.95;100.00;100161.47;5028722;28;20029;-77
2022/11/04 01:18:22;;;;;;;16.42;13.10;;;;;;;8.94;100.00;100173.75;5028782;28;20028;-77
2022/11/04 01:20:48;;;;;;;16.40;13.25;;;;;;;8.93;100.00;100174.69;5028721;28;20359;-77
2022/11/04 01:23:13;;;;;;;17.02;14.10;;;;;;;8.93;100.00;100184.38;5034147;28;20112;-77
2022/11/04 01:25:40;;;;;;;17.70;13.90;;;;;;;8.95;100.00;100185.06;5050928;28;20493;-76
2022/11/04 01:28:05;;;;;;;14.25;12.73;;;;;;;8.96;100.00;100184.13;5027500;28;20424;-77
2022/11/04 01:30:30;;;;;;;27.58;14.30;;;;;;;8.97;100.00;100175.28;5027790;28;20025;-77
2022/11/04 01:32:56;;;;;;;21.40;13.10;;;;;;;8.94;100.00;100175.53;5033098;28;20033;-76
2022/11/04 01:35:21;;;;;;;15.48;12.88;;;;;;;8.95;100.00;100175.41;5029554;28;20029;-76
2022/11/04 01:37:46;;;;;;;14.02;11.35;;;;;;;8.92;100.00;100166.94;5026918;28;20025;-77
2022/11/04 01:40:12;;;;;;;13.65;10.77;;;;;;;8.90;100.00;100163.63;5025988;28;20112;-75
2022/11/04 01:42:37;;;;;;;15.82;10.63;;;;;;;8.87;100.00;100174.34;5025854;28;20098;-76
2022/11/04 01:45:03;;;;;;;14.57;10.60;;;;;;;8.85;100.00;100171.84;5047935;28;20028;-76
2022/11/04 01:47:38;;;;;;;13.43;9.95;;;;;;;8.82;100.00;100176.50;5064666;28;20032;-77
2022/11/04 01:50:27;;;;;;;14.90;10.43;;;;;;;8.79;100.00;100173.13;5047983;28;20067;-76
2022/11/04 01:53:06;;;;;;;16.52;9.57;;;;;;;8.74;100.00;100171.81;5064171;28;20024;-76
2022/11/04 01:55:34;;;;;;;17.10;9.35;;;;;;;8.68;100.00;100169.66;5045311;28;20433;-76
2022/11/04 01:58:14;;;;;;;14.35;9.80;;;;;;;8.64;100.00;100163.84;5038336;28;20485;-77
2022/11/04 02:00:41;;;;;;;12.02;8.80;;;;;;;8.63;100.00;100177.91;5029699;28;20496;-77
2022/11/04 02:03:33;;;;;;;13.38;7.80;;;;;;;8.61;100.00;100171.09;5035372;28;20055;-77
2022/11/04 02:06:00;;;;;;;14.85;7.88;;;;;;;8.54;100.00;100173.34;5048434;28;20033;-77
2022/11/04 02:08:28;;;;;;;14.50;7.50;;;;;;;8.50;100.00;100177.16;5049008;28;20432;-77
2022/11/04 02:10:58;;;;;;;10.20;8.00;;;;;;;8.48;100.00;100173.84;5049479;28;20030;-77
2022/11/04 02:13:25;;;;;;;9.38;7.20;;;;;;;8.45;100.00;100168.81;5032536;28;20036;-77
2022/11/04 02:16:16;;;;;;;12.52;7.63;;;;;;;8.45;100.00;100174.06;5028828;28;20022;-77
2022/11/04 02:19:26;;;;;;;13.18;7.85;;;;;;;8.44;100.00;100172.41;5028644;28;20036;-77
2022/11/04 02:22:22;;;;;;;13.88;6.60;;;;;;;8.39;100.00;100179.75;5026637;28;20040;-76
2022/11/04 02:25:06;;;;;;;11.27;6.53;;;;;;;8.33;100.00;100186.28;5008511;28;20062;-77
2022/11/04 02:27:34;;;;;;;9.98;6.80;;;;;;;8.32;100.00;100189.84;5007880;28;20096;-76
2022/11/04 02:30:14;;;;;;;10.32;6.65;;;;;;;8.32;100.00;100189.00;5008550;28;20040;-77
2022/11/04 02:33:17;;;;;;;11.93;6.70;;;;;;;8.30;100.00;100185.66;5013099;28;20041;-77
2022/11/04 02:36:02;;;;;;;13.73;5.97;;;;;;;8.26;100.00;100189.47;5051887;28;20024;-77
2022/11/04 02:38:30;;;;;;;8.93;5.53;;;;;;;8.21;100.00;100191.59;5043822;28;20037;-77
2022/11/04 02:41:32;;;;;;;8.75;5.30;;;;;;;8.20;100.00;100196.00;5011475;28;20026;-77
2022/11/04 02:44:18;;;;;;;9.40;5.45;;;;;;;8.17;100.00;100199.69;5058340;28;20052;-77
2022/11/04 02:46:52;;;;;;;13.30;5.30;;;;;;;8.14;100.00;100192.06;5030787;28;20029;-77
2022/11/04 02:49:39;;;;;;;7.45;4.93;;;;;;;8.14;100.00;100197.28;5028897;28;20025;-77
2022/11/04 02:52:08;;;;;;;9.10;5.10;;;;;;;8.08;100.00;100203.00;5032116;28;20025;-77
2022/11/04 02:54:40;;;;;;;8.48;4.70;;;;;;;8.07;100.00;100200.50;5049016;28;20553;-77
2022/11/04 02:57:10;;;;;;;9.20;4.40;;;;;;;8.05;100.00;100200.59;5035607;28;20104;-77
2022/11/04 02:59:43;;;;;;;11.15;4.78;;;;;;;8.05;100.00;100203.22;5032532;28;20026;-77
2022/11/04 03:02:15;;;;;;;10.63;4.78;;;;;;;8.04;100.00;100196.31;5031054;28;20123;-77
2022/11/04 03:04:46;;;;;;;8.35;3.90;;;;;;;7.99;100.00;100195.78;5045144;28;20056;-77
2022/11/04 03:07:16;;;;;;;10.73;4.60;;;;;;;7.99;100.00;100201.03;5031262;28;20061;-77
2022/11/04 03:09:48;;;;;;;10.20;4.30;;;;;;;7.96;100.00;100198.63;5031469;28;20691;-77
2022/11/04 03:12:18;;;;;;;9.43;4.32;;;;;;;7.93;100.00;100201.47;5031410;28;20393;-77
2022/11/04 03:14:50;;;;;;;8.05;4.00;;;;;;;7.94;100.00;100204.94;5051685;28;20481;-77
2022/11/04 03:17:26;;;;;;;11.07;4.25;;;;;;;7.89;100.00;100210.50;5049837;28;20290;-77
2022/11/04 03:20:04;;;;;;;7.55;3.88;;;;;;;7.88;100.00;100210.63;5050987;28;20021;-77
2022/11/04 03:22:35;;;;;;;9.80;4.32;;;;;;;7.81;100.00;100212.84;5048653;28;20456;-77
2022/11/04 03:25:03;;;;;;;9.23;3.88;;;;;;;7.81;100.00;100199.75;5059777;28;20051;-77
2022/11/04 03:27:43;;;;;;;8.73;3.90;;;;;;;7.80;100.00;100208.56;5028660;28;20033;-77
2022/11/04 03:30:20;;;;;;;9.05;4.30;;;;;;;7.76;100.00;100205.34;5032366;28;20104;-77
2022/11/04 03:33:24;;;;;;;11.63;4.07;;;;;;;7.80;100.00;100204.16;5048718;28;20029;-77
2022/11/04 03:35:49;;;;;;;;;;;;;;;7.86;100.00;100210.75;5010746;28;20125;-77
2022/11/04 03:38:15;;;;;;;9.98;3.88;;;;;;;7.75;100.00;100206.28;5008636;28;20159;-77
2022/11/04 03:40:40;;;;;;;10.00;3.95;;;;;;;7.75;100.00;100210.69;5009679;28;20059;-77
2022/11/04 03:43:18;;;;;;;10.75;3.63;;;;;;;7.70;100.00;100218.03;5035181;28;20021;-77
2022/11/04 03:45:44;;;;;;;8.60;3.88;;;;;;;7.67;100.00;100216.50;5049517;28;20408;-77
2022/11/04 03:48:12;;;;;;;11.32;3.55;;;;;;;7.63;100.00;100215.03;5049009;28;20033;-77
2022/11/04 03:50:43;;;;;;;8.38;4.03;;;;;;;7.65;100.00;100214.94;5049332;28;20021;-77
2022/11/04 03:53:11;;;;;;;11.73;3.80;;;;;;;7.62;100.00;100215.16;5022345;28;20064;-77
2022/11/04 03:56:03;;;;;;;8.57;3.47;;;;;;;7.57;100.00;100222.47;5044592;28;20079;-77
2022/11/04 03:58:49;;;;;;;8.95;3.45;;;;;;;7.61;100.00;100213.47;5023289;28;20034;-77
2022/11/04 04:01:40;;;;;;;12.95;3.80;;;;;;;7.59;100.00;100210.09;5029639;28;20370;-77
2022/11/04 04:04:11;;;;;;;7.10;3.10;;;;;;;7.54;100.00;100213.06;5041838;28;20116;-77
2022/11/04 04:06:37;;;;;;;9.10;3.30;;;;;;;7.51;100.00;100214.09;5049258;28;20441;-77
2022/11/04 04:09:12;;;;;;;9.13;3.53;;;;;;;7.53;100.00;100220.06;5030981;28;20225;-77
2022/11/04 04:11:51;;;;;;;11.88;3.50;;;;;;;7.46;100.00;100215.38;5030107;28;20029;-77
2022/11/04 04:14:50;;;;;;;11.35;3.42;;;;;;;7.53;100.00;100216.63;5046251;28;20036;-77
2022/11/04 04:17:31;;;;;;;7.95;3.05;;;;;;;7.48;100.00;100223.97;5029362;28;20205;-77
2022/11/04 04:20:00;;;;;;;18.52;3.95;;;;;;;7.47;100.00;100220.50;5045197;28;20449;-77
2022/11/04 04:22:34;;;;;;;10.68;3.78;;;;;;;7.40;100.00;100224.50;5045478;28;20029;-77
2022/11/04 04:27:51;;;;;;;11.43;3.10;;;;;;;7.37;100.00;100232.59;5049940;28;20027;-77
2022/11/04 04:30:17;;;;;;;10.57;3.13;;;;;;;7.41;100.00;100239.28;5048397;28;20074;-77
2022/11/04 04:32:48;;;;;;;12.40;3.40;;;;;;;7.33;100.00;100241.59;5047893;28;20072;-77
2022/11/04 04:46:24;;;;;;;11.52;3.13;;;;;;;7.15;100.00;100258.56;5050369;28;20036;-77
2022/11/04 04:48:50;;;;;;;6.05;2.95;;;;;;;7.08;100.00;100250.31;5048935;28;20033;-77
2022/11/04 04:51:15;;;;;;;6.05;2.78;;;;;;;7.05;100.00;100247.91;5034606;28;20232;-77
2022/11/04 04:53:41;;;;;;;7.03;2.60;;;;;;;7.01;100.00;100250.84;5039213;28;20051;-77
2022/11/04 04:56:06;;;;;;;7.55;2.85;;;;;;;7.00;100.00;100254.41;5039258;28;20025;-77
2022/11/04 04:58:31;;;;;;;10.05;3.33;;;;;;;6.89;100.00;100255.97;5028735;28;20017;-77
2022/11/04 05:00:57;;;;;;;9.15;2.90;;;;;;;6.92;100.00;100262.78;5028315;28;20029;-77
2022/11/04 05:03:23;;;;;;;8.98;3.17;;;;;;;6.83;100.00;100264.25;5034728;28;20032;-77
2022/11/04 05:05:49;;;;;;;9.73;2.92;;;;;;;6.78;100.00;100265.47;5049065;28;20112;-77
2022/11/04 05:08:14;;;;;;;8.65;3.35;;;;;;;6.78;100.00;100266.31;5021109;28;20980;-77
2022/11/04 05:10:39;;;;;;;10.75;3.22;;;;;;;6.80;100.00;100271.41;5029177;28;20069;-76
2022/11/04 05:15:49;;;;;;;9.00;3.50;;;;;;;6.81;100.00;100273.97;5037888;28;20068;-77
2022/11/04 05:18:14;;;;;;;11.55;4.57;;;;;;;6.82;100.00;100273.03;5026745;28;20093;-77
2022/11/04 05:20:39;;;;;;;13.35;5.95;;;;;;;6.88;100.00;100280.44;5027091;28;20466;-77
2022/11/04 05:23:06;;;;;;;10.65;5.63;;;;;;;6.96;100.00;100279.94;5047248;28;20032;-77
2022/11/04 05:25:31;;;;;;;16.63;7.43;;;;;;;7.01;100.00;100287.44;5024767;28;20115;-77
2022/11/04 05:28:01;;;;;;;21.35;8.57;;;;;;;7.01;100.00;100293.53;5027693;28;20022;-77
2022/11/04 05:30:26;;;;;;;15.48;8.15;;;;;;;7.14;100.00;100288.28;5026520;28;20029;-77
2022/11/04 05:32:51;;;;;;;15.00;7.95;;;;;;;7.13;100.00;100292.66;5062370;28;20028;-77
2022/11/04 05:35:17;;;;;;;14.07;8.13;;;;;;;7.18;100.00;100300.19;5036504;28;20039;-76
2022/11/04 05:37:42;;;;;;;16.95;8.45;;;;;;;7.17;100.00;100298.53;5046738;28;20037;-76
2022/11/04 05:40:08;;;;;;;19.77;8.50;;;;;;;7.17;100.00;100306.38;5046464;28;20458;-76
2022/11/04 05:42:35;;;;;;;14.45;8.07;;;;;;;7.17;100.00;100298.53;5042104;28;20033;-76
2022/11/04 05:45:01;;;;;;;20.05;8.60;;;;;;;7.23;100.00;100306.81;5044244;28;20025;-76
2022/11/04 05:47:26;;;;;;;15.68;8.65;;;;;;;7.23;100.00;100308.59;5047040;28;20469;-76
2022/11/04 05:49:52;;;;;;;16.98;7.30;;;;;;;7.20;100.00;100301.81;5035321;28;20028;-76
2022/11/04 05:52:17;;;;;;;14.60;7.70;;;;;;;7.18;100.00;100308.06;5043628;28;20071;-76
2022/11/04 05:54:42;;;;;;;12.63;7.28;;;;;;;7.18;100.00;100308.06;5047735;28;20037;-76
2022/11/04 05:57:12;;;;;;;11.63;7.00;;;;;;;7.19;100.00;100312.34;5031399;28;20113;-76
2022/11/04 05:59:37;;;;;;;12.35;7.22;;;;;;;7.13;100.00;100318.00;5023700;28;20022;-76
2022/11/04 06:02:02;;;;;;;13.75;7.03;;;;;;;7.09;100.00;100317.38;5027924;28;20032;-76
2022/11/04 06:04:28;;;;;;;15.10;7.93;;;;;;;7.02;100.00;100316.13;5027353;28;20017;-76
2022/11/04 06:06:54;;;;;;;16.00;7.38;;;;;;;7.03;100.00;100322.19;5032992;28;20025;-76
2022/11/04 06:09:19;;;;;;;12.50;7.03;;;;;;;6.94;100.00;100317.59;5050823;28;20036;-76
2022/11/04 06:11:44;;;;;;;13.43;6.97;;;;;;;6.93;100.00;100324.59;5050571;28;20594;-76
2022/11/04 06:14:10;;;;;;;15.60;6.97;;;;;;;6.90;100.00;100327.41;5051732;28;20108;-76
2022/11/04 06:16:35;;;;;;;11.98;6.90;;;;;;;6.92;100.00;100330.75;5047193;28;20029;-76
2022/11/04 06:19:01;;;;;;;10.57;6.60;;;;;;;6.95;100.00;100329.72;5030925;28;20474;-76
2022/11/04 06:21:29;;;;;;;13.55;6.88;;;;;;;6.93;100.00;100332.44;5038797;28;20028;-76
2022/11/04 06:23:59;;;;;;;13.88;6.38;;;;;;;6.89;100.00;100331.81;5052156;28;20060;-76
2022/11/04 06:26:26;;;;;;;11.80;6.97;;;;;;;6.86;100.00;100332.00;5049522;28;20036;-75
2022/11/04 06:28:52;;;;;;;11.07;6.80;;;;;;;6.85;100.00;100338.19;5050731;28;20025;-77
2022/11/04 06:31:18;;;;;;;14.25;6.57;;;;;;;6.81;100.00;100339.34;5051017;28;20099;-77
2022/11/04 06:33:44;;;;;;;12.10;6.43;;;;;;;6.80;100.00;100337.63;5033547;28;20048;-77
2022/11/04 06:36:14;;;;;;;15.48;6.93;;;;;;;6.74;100.00;100343.25;5046194;28;20526;-76
2022/11/04 06:38:39;;;;;;;10.82;6.18;;;;;;;6.72;100.00;100350.38;5047146;28;20474;-77
2022/11/04 06:41:11;;;;;;;11.45;6.13;;;;;;;6.72;100.00;100353.00;5036542;28;20017;-76
2022/11/04 06:43:37;;;;;;;11.63;6.45;;;;;;;6.71;100.00;100356.53;5075724;28;20052;-76
2022/11/04 06:46:03;;;;;;;12.45;6.85;;;;;;;6.69;100.00;100349.75;5050285;28;20381;-76
2022/11/04 06:48:29;;;;;;;11.95;6.63;;;;;;;6.67;100.00;100352.47;5038041;28;20055;-76
2022/11/04 06:50:59;;;;;;;12.23;6.00;;;;;;;6.69;100.00;100355.81;5049534;28;20029;-76
2022/11/04 06:53:25;;;;;;;11.40;6.18;;;;;;;6.69;100.00;100353.19;5049336;28;20384;-76
2022/11/04 06:55:52;;;;;;;11.70;5.80;;;;;;;6.62;100.00;100354.53;5046209;28;20359;-76
2022/11/04 06:58:18;;;;;;;9.15;5.43;;;;;;;6.60;100.00;100362.47;5045930;28;20029;-76
2022/11/04 07:00:44;;;;;;;10.23;5.78;;;;;;;6.59;100.00;100362.59;5051440;28;20032;-76
2022/11/04 07:03:09;;;;;;;11.77;5.88;;;;;;;6.65;100.00;100370.03;5051301;28;20037;-75
2022/11/04 07:05:35;;;;;;;11.93;6.38;;;;;;;6.68;100.00;100385.50;5031215;28;20143;-76
2022/11/04 07:08:00;;;;;;;11.27;6.43;;;;;;;6.75;100.00;100381.53;5044277;28;20036;-76
2022/11/04 07:10:25;;;;;;;10.80;6.57;;;;;;;6.81;100.00;100383.78;5044946;28;20029;-76
2022/11/04 07:12:51;;;;;;;11.35;5.97;;;;;;;6.91;100.00;100381.38;5032725;28;20034;-75
2022/11/04 07:15:16;;;;;;;11.07;6.50;;;;;;;6.99;100.00;100383.50;5047724;28;20054;-76
2022/11/04 07:17:43;;;;;;;12.50;6.72;;;;;;;7.03;100.00;100395.41;5051640;28;20137;-76
2022/11/04 07:20:11;;;;;;;11.00;5.95;;;;;;;7.10;100.00;100396.69;5050524;28;20021;-76
2022/11/04 07:22:37;;;;;;;14.98;7.05;;;;;;;7.17;100.00;100392.72;5049529;28;20123;-76
2022/11/04 07:25:03;;;;;;;13.70;6.82;;;;;;;7.26;100.00;100399.13;5033156;28;20120;-76
2022/11/04 07:27:28;;;;;;;16.23;7.57;;;;;;;7.32;100.00;100396.94;5015174;28;20072;-76
2022/11/04 07:29:53;;;;;;;11.85;6.93;;;;;;;7.37;100.00;100394.00;5013423;28;20542;-76
2022/11/04 07:32:19;;;;;;;11.88;6.60;;;;;;;7.38;100.00;100396.50;5030894;28;20033;-76
2022/11/04 07:34:44;;;;;;;11.80;6.63;;;;;;;7.45;100.00;100402.16;5031161;28;20051;-76
2022/11/04 07:37:12;;;;;;;13.50;6.28;;;;;;;7.50;100.00;100403.53;5042337;28;20033;-77
2022/11/04 07:39:37;;;;;;;11.20;6.60;;;;;;;7.53;100.00;100405.94;5031636;28;20017;-76
2022/11/04 07:42:02;;;;;;;18.80;7.10;;;;;;;7.60;100.00;100408.97;5029088;28;20025;-76
2022/11/04 07:44:28;;;;;;;12.40;6.40;;;;;;;7.66;100.00;100411.19;5010795;28;20026;-76
2022/11/04 07:46:53;;;;;;;14.02;7.18;;;;;;;7.70;100.00;100411.81;5027366;28;20041;-76
2022/11/04 07:49:18;;;;;;;15.27;6.68;;;;;;;7.69;100.00;100413.59;5011122;28;20030;-77
2022/11/04 07:51:43;;;;;;;9.75;6.13;;;;;;;7.77;100.00;100418.28;5026447;28;20034;-77
2022/11/04 07:54:11;;;;;;;17.23;6.57;;;;;;;7.84;100.00;100419.53;5019463;28;20029;-77
2022/11/04 07:56:37;;;;;;;15.00;6.70;;;;;;;7.86;100.00;100415.03;5034684;28;20021;-77
2022/11/04 07:59:05;;;;;;;17.77;6.90;;;;;;;7.90;100.00;100424.34;5031392;28;20021;-77
2022/11/04 08:01:31;;;;;;;12.20;5.60;;;;;;;7.97;100.00;100424.75;5038036;28;20120;-77
2022/11/04 08:03:58;;;;;;;17.85;6.30;;;;;;;8.03;100.00;100426.97;5048911;28;20116;-77
2022/11/04 08:06:23;;;;;;;18.00;6.28;;;;;;;8.06;100.00;100418.88;5036416;28;20108;-78
2022/11/04 08:08:49;;;;;;;15.93;6.65;;;;;;;8.16;100.00;100431.22;5030479;28;20474;-77
2022/11/04 08:11:17;;;;;;;11.30;6.30;;;;;;;8.20;100.00;100431.00;5027988;28;20131;-78
2022/11/04 08:13:42;;;;;;;13.52;5.70;;;;;;;8.28;100.00;100434.75;5027479;28;20026;-78
2022/11/04 08:16:13;;;;;;;13.45;6.10;;;;;;;8.39;100.00;100440.09;5053132;28;20079;-78
2022/11/04 08:18:40;;;;;;;15.07;6.65;;;;;;;8.50;100.00;100434.09;5041888;28;20017;-78
2022/11/04 08:21:06;;;;;;;14.02;6.07;;;;;;;8.54;100.00;100446.03;5010376;28;20109;-78
2022/11/04 08:23:33;;;;;;;13.13;6.38;;;;;;;8.60;100.00;100448.22;5010708;28;20125;-78
2022/11/04 08:25:58;;;;;;;14.90;6.40;;;;;;;8.72;100.00;100443.88;5022846;28;20481;-78
2022/11/04 08:28:28;;;;;;;13.20;6.55;;;;;;;8.79;100.00;100445.94;5028966;28;20021;-78
2022/11/04 08:31:01;;;;;;;13.25;6.78;;;;;;;8.86;100.00;100448.97;5030337;28;20474;-77
2022/11/04 08:33:28;;;;;;;14.93;6.90;;;;;;;8.91;100.00;100459.13;5028572;28;20035;-77
2022/11/04 08:35:59;;;;;;;15.80;6.25;;;;;;;8.90;100.00;100462.69;5028117;28;20386;-77
2022/11/04 08:38:28;;;;;;;13.18;6.70;;;;;;;8.90;100.00;100470.56;5024765;28;20064;-77
2022/11/04 08:40:59;;;;;;;13.98;6.72;;;;;;;8.95;100.00;100471.06;5029011;28;20026;-77
2022/11/04 08:43:25;;;;;;;12.80;6.88;;;;;;;9.06;100.00;100473.72;5030867;28;20086;-77
2022/11/04 08:45:51;;;;;;;15.50;6.80;;;;;;;9.09;100.00;100470.88;5034441;28;20025;-77
2022/11/04 08:48:16;;;;;;;16.38;6.50;;;;;;;9.12;100.00;100468.03;5029244;28;20033;-77
2022/11/04 08:50:42;;;;;;;16.20;7.20;;;;;;;9.23;100.00;100469.88;5023035;28;20036;-77
2022/11/04 08:53:08;;;;;;;15.63;6.90;;;;;;;9.24;100.00;100477.63;5018929;28;20033;-77
2022/11/04 08:55:34;;;;;;;19.17;7.45;;;;;;;9.33;100.00;100476.09;5059206;28;20067;-77
2022/11/04 08:58:00;;;;;;;17.08;6.97;;;;;;;9.39;100.00;100475.63;5013599;28;20026;-77
2022/11/04 09:00:26;;;;;;;15.25;7.05;;;;;;;9.37;100.00;100475.75;5028468;28;20026;-77
2022/11/04 09:02:51;;;;;;;12.60;6.40;;;;;;;9.36;100.00;100479.34;5013940;28;20121;-77
2022/11/04 09:05:17;;;;;;;12.70;6.32;;;;;;;9.39;100.00;100479.09;5009468;28;20482;-77
2022/11/04 09:07:43;;;;;;;14.48;6.10;;;;;;;9.37;100.00;100494.13;5012994;28;20101;-77
2022/11/04 09:10:12;;;;;;;9.90;6.05;;;;;;;9.46;100.00;100492.59;5023823;28;20028;-77
2022/11/04 09:12:37;;;;;;;15.73;6.70;;;;;;;9.47;100.00;100504.78;5028307;28;20061;-77
2022/11/04 09:15:04;;;;;;;16.77;6.38;;;;;;;9.53;100.00;100498.22;5021852;28;20172;-77
2022/11/04 09:17:30;;;;;;;13.10;6.22;;;;;;;9.62;100.00;100510.69;5025793;28;20120;-77
2022/11/04 09:19:59;;;;;;;16.65;6.65;;;;;;;9.52;100.00;100505.28;5028029;28;20112;-78
2022/11/04 09:22:24;;;;;;;21.02;6.90;;;;;;;9.58;100.00;100509.22;5026896;28;20108;-77
2022/11/04 09:24:49;;;;;;;16.70;6.40;;;;;;;9.63;100.00;100512.38;5025956;28;20145;-77
2022/11/04 09:27:15;;;;;;;16.75;6.97;;;;;;;9.65;100.00;100518.34;5009252;28;20459;-77
2022/11/04 09:29:40;;;;;;;14.20;6.50;;;;;;;9.74;100.00;100518.47;5009164;28;20022;-77
2022/11/04 09:32:06;;;;;;;12.63;6.43;;;;;;;9.74;100.00;100517.63;5009150;28;20033;-77
2022/11/04 09:34:31;;;;;;;13.18;5.97;;;;;;;9.78;100.00;100524.34;5010297;28;20072;-77
2022/11/04 09:36:57;;;;;;;18.77;6.90;;;;;;;9.84;100.00;100528.28;5008864;28;20149;-77
2022/11/04 09:39:24;;;;;;;15.68;6.65;;;;;;;9.90;100.00;100533.91;5017197;28;20026;-77
2022/11/04 09:41:59;;;;;;;17.45;6.43;;;;;;;9.90;100.00;100539.16;5006913;28;20029;-77
2022/11/04 09:44:41;;;;;;;14.15;6.57;;;;;;;10.02;100.00;100545.28;5008742;28;20057;-77
2022/11/04 09:47:09;;;;;;;12.70;6.20;;;;;;;10.05;100.00;100550.31;5010066;28;20029;-77
2022/11/04 09:49:37;;;;;;;17.80;6.88;;;;;;;10.08;100.00;100552.72;5025537;28;20482;-77
2022/11/04 09:52:13;;;;;;;14.93;6.10;;;;;;;10.14;100.00;100554.03;5009890;28;20117;-77
2022/11/04 09:55:05;;;;;;;16.23;6.70;;;;;;;10.26;100.00;100558.34;5010589;28;20394;-77
2022/11/04 09:57:31;;;;;;;14.45;6.80;;;;;;;10.21;100.00;100557.88;5010829;28;20037;-77
2022/11/04 09:59:59;;;;;;;15.10;6.53;;;;;;;10.30;100.00;100558.00;5008472;28;20647;-76
2022/11/04 10:02:53;;;;;;;12.70;6.47;;;;;;;10.37;100.00;100558.34;5041200;28;20017;-76
2022/11/04 10:05:45;;;;;;;14.50;6.45;;;;;;;10.44;100.00;100564.84;5008472;28;20033;-76
2022/11/04 10:08:45;;;;;;;13.10;6.38;;;;;;;10.55;100.00;100564.84;5009142;28;20490;-76
2022/11/04 10:11:30;;;;;;;18.30;6.47;;;;;;;10.68;100.00;100575.22;5019095;28;20073;-76
2022/11/04 10:14:12;;;;;;;12.40;6.22;;;;;;;10.68;100.00;100570.78;5009387;28;20033;-76
2022/11/04 10:16:58;;;;;;;12.98;6.30;;;;;;;10.71;100.00;100574.97;5021444;28;20389;-76
2022/11/04 10:19:36;;;;;;;15.40;6.50;;;;;;;10.84;100.00;100578.34;5060123;28;20497;-76
2022/11/04 10:22:28;;;;;;;16.35;6.93;;;;;;;10.95;100.00;100574.84;5028242;28;20014;-76
2022/11/04 10:25:12;;;;;;;14.70;6.68;;;;;;;11.03;100.00;100582.97;5028211;28;20056;-77
2022/11/04 10:27:42;;;;;;;12.98;6.40;;;;;;;11.12;100.00;100576.94;5059641;28;20022;-77
2022/11/04 10:30:19;;;;;;;14.65;6.55;;;;;;;11.22;100.00;100582.34;5025397;28;20064;-76
2022/11/04 10:33:12;;;;;;;14.57;6.80;;;;;;;11.20;100.00;100585.06;5027954;28;20384;-75
2022/11/04 10:35:45;;;;;;;15.27;6.90;;;;;;;11.22;100.00;100596.34;5060339;28;20551;-76
2022/11/04 10:38:32;;;;;;;15.45;6.90;;;;;;;11.20;100.00;100590.31;5023712;28;20040;-76
2022/11/04 10:40:57;;;;;;;13.90;7.55;;;;;;;11.20;99.88;100592.97;5025577;28;20045;-76
2022/11/04 10:43:30;;;;;;;11.80;7.00;;;;;;;11.21;99.14;100602.56;5044392;28;20434;-76
2022/11/04 10:46:08;;;;;;;16.02;7.28;;;;;;;11.24;98.08;100604.94;5020261;28;20029;-76
2022/11/04 10:48:53;;;;;;;19.08;7.45;;;;;;;11.23;97.57;100616.44;5028169;28;20504;-75
2022/11/04 10:51:22;;;;;;;17.60;7.97;;;;;;;11.32;98.73;100616.66;5028323;28;20386;-75
2022/11/04 10:53:57;;;;;;;15.57;9.02;;;;;;;11.49;97.53;100621.38;5028263;28;20036;-76
2022/11/04 10:56:41;;;;;;;17.48;9.50;;;;;;;11.55;97.12;100628.78;5028524;28;20445;-76
2022/11/04 10:59:49;;;;;;;17.42;9.63;;;;;;;11.75;98.27;100621.91;5050539;28;20072;-76
2022/11/04 11:02:14;;;;;;;16.35;9.30;;;;;;;11.74;93.46;100610.50;5026627;28;20079;-76
2022/11/04 11:04:40;;;;;;;14.07;8.70;;;;;;;11.86;94.44;100613.97;5029257;28;20029;-76
2022/11/04 11:07:12;;;;;;;19.08;9.73;;;;;;;11.92;93.61;100622.19;5039198;28;20037;-76
2022/11/04 11:09:40;;;;;;;15.25;8.57;;;;;;;11.99;93.81;100619.88;5052207;28;20029;-76
2022/11/04 11:12:22;;;;;;;17.65;8.32;;;;;;;12.08;92.86;100608.59;5044424;28;20449;-76
2022/11/04 11:14:49;;;;;;;15.90;8.90;;;;;;;12.21;93.29;100603.94;5057955;28;20037;-76
2022/11/04 11:17:15;;;;;;;14.77;8.75;;;;;;;12.31;91.55;100609.25;5031097;28;20172;-76
2022/11/04 11:19:49;;;;;;;20.38;9.23;;;;;;;12.24;90.67;100618.66;5063690;28;20018;-76
2022/11/04 11:22:40;;;;;;;15.07;8.55;;;;;;;12.32;91.15;100621.47;5061713;28;20474;-76
2022/11/04 11:25:28;;;;;;;16.73;9.00;;;;;;;12.24;90.29;100618.66;5031075;28;20046;-77
2022/11/04 11:28:12;;;;;;;15.07;9.07;;;;;;;12.43;90.60;100624.06;5031101;28;20056;-77
2022/11/04 11:30:43;;;;;;;16.58;8.07;;;;;;;12.41;87.86;100626.00;5035248;28;20024;-77
2022/11/04 11:33:31;;;;;;;14.93;8.18;;;;;;;12.41;87.80;100618.09;5062767;28;20083;-77
2022/11/04 11:36:14;;;;;;;14.55;7.97;;;;;;;12.31;89.22;100625.09;5028748;28;20415;-77
2022/11/04 11:39:00;;;;;;;15.40;8.35;;;;;;;12.45;88.57;100631.84;5025732;28;20033;-77
2022/11/04 11:41:30;;;;;;;15.68;7.55;;;;;;;12.42;87.35;100632.94;5031148;28;20104;-77
2022/11/04 11:44:03;;;;;;;19.10;8.18;;;;;;;12.43;86.91;100624.06;5047190;28;20155;-77
2022/11/04 11:46:30;;;;;;;;;;;;;;;12.70;90.85;100618.19;5046295;28;20021;-76
2022/11/04 11:49:01;;;;;;;15.35;8.20;;;;;;;12.56;86.07;100615.94;5040200;28;19917;-76
2022/11/04 11:51:37;;;;;;;16.65;7.88;;;;;;;12.54;86.96;100618.69;5029229;28;20074;-76
2022/11/04 11:54:23;;;;;;;15.13;8.23;;;;;;;12.71;87.74;100619.03;5033297;28;20016;-76
2022/11/04 11:56:54;;;;;;;16.90;9.10;;;;;;;12.78;87.91;100622.81;5020818;28;20053;-76
2022/11/04 11:59:27;;;;;;;18.42;8.68;;;;;;;12.96;88.16;100625.69;5024582;28;20104;-76
2022/11/04 12:02:24;;;;;;;14.60;7.63;;;;;;;13.02;87.25;100631.25;5020554;28;20100;-76
2022/11/04 12:04:50;;;;;;;15.40;7.75;;;;;;;12.90;85.68;100640.25;5009326;28;20046;-77
2022/11/04 12:07:26;;;;;;;16.15;7.60;;;;;;;13.08;86.88;100641.28;5026058;28;20180;-77
2022/11/04 12:10:24;;;;;;;15.23;6.22;;;;;;;13.06;85.27;100639.75;5043200;28;20394;-77